Terminal Aerodrome Forecast
Issued by NWS

Home | Current Version | Previous Version | Text Only | Print | Product List | Glossary On
Versions: 1 2 3 4 5 6 7 8 9 10 11 12 13 14 15 16
089
FTUS43 KPAH 240520
TAFCGI
TAF
KCGI 240520Z 2406/2506 17006KT P6SM BKN180
     FM241400 20011KT P6SM FEW030 SCT130 BKN180
      TEMPO 2420/2424 BKN035
     FM250000 19008KT P6SM SKC=

USA.gov is the U.S. government's official web portal to all federal, state and local government web resources and services.